sensor_id;sensor_type;location;lat;lon;timestamp;P1;durP1;ratioP1;P2;durP2;ratioP2
16514;SDS011;8370;52.556;7.970;2022-07-30T00:02:04;3.83;;;3.30;;
16514;SDS011;8370;52.556;7.970;2022-07-30T00:04:29;9.57;;;4.13;;
16514;SDS011;8370;52.556;7.970;2022-07-30T00:06:56;5.67;;;3.70;;
16514;SDS011;8370;52.556;7.970;2022-07-30T00:09:22;6.00;;;3.83;;
16514;SDS011;8370;52.556;7.970;2022-07-30T00:11:48;5.10;;;3.50;;
16514;SDS011;8370;52.556;7.970;2022-07-30T00:14:13;6.57;;;3.87;;
16514;SDS011;8370;52.556;7.970;2022-07-30T00:16:39;4.57;;;3.83;;
16514;SDS011;8370;52.556;7.970;2022-07-30T00:19:04;7.07;;;3.70;;
16514;SDS011;8370;52.556;7.970;2022-07-30T00:21:30;5.50;;;4.10;;
16514;SDS011;8370;52.556;7.970;2022-07-30T00:23:55;6.80;;;4.60;;
16514;SDS011;8370;52.556;7.970;2022-07-30T00:26:21;7.23;;;4.70;;
16514;SDS011;8370;52.556;7.970;2022-07-30T00:28:46;8.77;;;4.57;;
16514;SDS011;8370;52.556;7.970;2022-07-30T00:31:11;6.00;;;4.83;;
16514;SDS011;8370;52.556;7.970;2022-07-30T00:33:37;7.93;;;4.10;;
16514;SDS011;8370;52.556;7.970;2022-07-30T00:36:02;7.87;;;4.37;;
16514;SDS011;8370;52.556;7.970;2022-07-30T00:38:28;6.27;;;3.70;;
16514;SDS011;8370;52.556;7.970;2022-07-30T00:40:54;10.80;;;4.40;;
16514;SDS011;8370;52.556;7.970;2022-07-30T00:43:19;7.30;;;4.90;;
16514;SDS011;8370;52.556;7.970;2022-07-30T00:45:45;6.33;;;4.23;;
16514;SDS011;8370;52.556;7.970;2022-07-30T00:48:11;7.67;;;4.23;;
16514;SDS011;8370;52.556;7.970;2022-07-30T00:50:38;5.43;;;4.43;;
16514;SDS011;8370;52.556;7.970;2022-07-30T00:53:04;8.00;;;5.50;;
16514;SDS011;8370;52.556;7.970;2022-07-30T00:55:31;8.37;;;5.10;;
16514;SDS011;8370;52.556;7.970;2022-07-30T00:57:57;7.00;;;4.30;;
16514;SDS011;8370;52.556;7.970;2022-07-30T01:00:23;10.93;;;5.30;;
16514;SDS011;8370;52.556;7.970;2022-07-30T01:02:49;11.90;;;5.10;;
16514;SDS011;8370;52.556;7.970;2022-07-30T01:05:15;7.53;;;5.27;;
16514;SDS011;8370;52.556;7.970;2022-07-30T01:07:40;11.97;;;6.47;;
16514;SDS011;8370;52.556;7.970;2022-07-30T01:10:06;11.50;;;6.17;;
16514;SDS011;8370;52.556;7.970;2022-07-30T01:12:33;9.77;;;6.00;;
16514;SDS011;8370;52.556;7.970;2022-07-30T01:15:00;12.60;;;6.60;;
16514;SDS011;8370;52.556;7.970;2022-07-30T01:17:29;5.93;;;4.50;;
16514;SDS011;8370;52.556;7.970;2022-07-30T01:19:55;10.00;;;4.37;;
16514;SDS011;8370;52.556;7.970;2022-07-30T01:25:02;9.07;;;6.17;;
16514;SDS011;8370;52.556;7.970;2022-07-30T01:27:46;11.13;;;5.67;;
16514;SDS011;8370;52.556;7.970;2022-07-30T01:30:16;8.00;;;5.00;;
16514;SDS011;8370;52.556;7.970;2022-07-30T01:32:43;8.47;;;5.70;;
16514;SDS011;8370;52.556;7.970;2022-07-30T01:35:10;6.43;;;5.33;;
16514;SDS011;8370;52.556;7.970;2022-07-30T01:37:38;10.87;;;6.00;;
16514;SDS011;8370;52.556;7.970;2022-07-30T01:40:05;10.20;;;6.63;;
16514;SDS011;8370;52.556;7.970;2022-07-30T01:42:31;13.27;;;7.27;;
16514;SDS011;8370;52.556;7.970;2022-07-30T01:44:58;9.63;;;6.27;;
16514;SDS011;8370;52.556;7.970;2022-07-30T01:47:25;10.73;;;6.80;;
16514;SDS011;8370;52.556;7.970;2022-07-30T01:49:52;7.80;;;6.30;;
16514;SDS011;8370;52.556;7.970;2022-07-30T01:52:19;6.87;;;5.67;;
16514;SDS011;8370;52.556;7.970;2022-07-30T01:54:47;8.70;;;5.83;;
16514;SDS011;8370;52.556;7.970;2022-07-30T01:57:17;7.73;;;5.93;;
16514;SDS011;8370;52.556;7.970;2022-07-30T01:59:44;6.13;;;5.20;;
16514;SDS011;8370;52.556;7.970;2022-07-30T02:02:14;14.57;;;6.07;;
16514;SDS011;8370;52.556;7.970;2022-07-30T02:04:39;8.93;;;5.50;;
16514;SDS011;8370;52.556;7.970;2022-07-30T02:07:09;9.40;;;5.57;;
16514;SDS011;8370;52.556;7.970;2022-07-30T02:09:47;10.07;;;6.10;;
16514;SDS011;8370;52.556;7.970;2022-07-30T02:12:19;8.23;;;6.37;;
16514;SDS011;8370;52.556;7.970;2022-07-30T02:17:37;11.17;;;7.23;;
16514;SDS011;8370;52.556;7.970;2022-07-30T02:20:13;9.43;;;7.20;;
16514;SDS011;8370;52.556;7.970;2022-07-30T02:22:41;12.50;;;7.90;;
16514;SDS011;8370;52.556;7.970;2022-07-30T02:25:10;9.43;;;7.43;;
16514;SDS011;8370;52.556;7.970;2022-07-30T02:27:41;11.60;;;8.20;;
16514;SDS011;8370;52.556;7.970;2022-07-30T02:30:09;13.23;;;8.67;;
16514;SDS011;8370;52.556;7.970;2022-07-30T02:32:36;14.43;;;8.50;;
16514;SDS011;8370;52.556;7.970;2022-07-30T02:35:08;11.43;;;8.33;;
16514;SDS011;8370;52.556;7.970;2022-07-30T02:37:39;11.50;;;8.47;;
16514;SDS011;8370;52.556;7.970;2022-07-30T02:40:07;13.23;;;9.57;;
16514;SDS011;8370;52.556;7.970;2022-07-30T02:42:34;11.03;;;8.57;;
16514;SDS011;8370;52.556;7.970;2022-07-30T02:45:01;13.03;;;9.13;;
16514;SDS011;8370;52.556;7.970;2022-07-30T02:47:27;11.83;;;9.97;;
16514;SDS011;8370;52.556;7.970;2022-07-30T02:49:54;17.10;;;9.77;;
16514;SDS011;8370;52.556;7.970;2022-07-30T02:52:20;12.80;;;9.30;;
16514;SDS011;8370;52.556;7.970;2022-07-30T02:54:48;12.70;;;8.87;;
16514;SDS011;8370;52.556;7.970;2022-07-30T02:57:14;15.93;;;10.43;;
16514;SDS011;8370;52.556;7.970;2022-07-30T02:59:41;12.90;;;9.10;;
16514;SDS011;8370;52.556;7.970;2022-07-30T03:02:08;11.67;;;8.27;;
16514;SDS011;8370;52.556;7.970;2022-07-30T03:04:37;14.37;;;8.37;;
16514;SDS011;8370;52.556;7.970;2022-07-30T03:07:03;13.63;;;8.67;;
16514;SDS011;8370;52.556;7.970;2022-07-30T03:09:30;12.23;;;8.90;;
16514;SDS011;8370;52.556;7.970;2022-07-30T03:11:56;13.47;;;9.67;;
16514;SDS011;8370;52.556;7.970;2022-07-30T03:14:22;10.27;;;7.73;;
16514;SDS011;8370;52.556;7.970;2022-07-30T03:16:50;11.23;;;8.33;;
16514;SDS011;8370;52.556;7.970;2022-07-30T03:19:21;16.63;;;8.97;;
16514;SDS011;8370;52.556;7.970;2022-07-30T03:21:49;13.30;;;8.20;;
16514;SDS011;8370;52.556;7.970;2022-07-30T03:24:17;13.57;;;9.50;;
16514;SDS011;8370;52.556;7.970;2022-07-30T03:26:46;11.70;;;9.60;;
16514;SDS011;8370;52.556;7.970;2022-07-30T03:29:13;15.77;;;9.73;;
16514;SDS011;8370;52.556;7.970;2022-07-30T03:31:40;12.60;;;9.57;;
16514;SDS011;8370;52.556;7.970;2022-07-30T03:34:06;11.67;;;8.63;;
16514;SDS011;8370;52.556;7.970;2022-07-30T03:36:34;11.90;;;9.03;;
16514;SDS011;8370;52.556;7.970;2022-07-30T03:39:02;11.13;;;8.37;;
16514;SDS011;8370;52.556;7.970;2022-07-30T03:41:29;11.57;;;9.80;;
16514;SDS011;8370;52.556;7.970;2022-07-30T03:43:55;16.07;;;10.30;;
16514;SDS011;8370;52.556;7.970;2022-07-30T03:46:21;14.57;;;11.10;;
16514;SDS011;8370;52.556;7.970;2022-07-30T03:48:47;13.83;;;11.37;;
16514;SDS011;8370;52.556;7.970;2022-07-30T03:51:14;13.30;;;10.03;;
16514;SDS011;8370;52.556;7.970;2022-07-30T03:53:41;16.20;;;11.30;;
16514;SDS011;8370;52.556;7.970;2022-07-30T03:56:09;15.70;;;11.00;;
16514;SDS011;8370;52.556;7.970;2022-07-30T03:58:36;15.87;;;11.33;;
16514;SDS011;8370;52.556;7.970;2022-07-30T04:01:03;10.07;;;8.27;;
16514;SDS011;8370;52.556;7.970;2022-07-30T04:03:30;11.13;;;8.83;;
16514;SDS011;8370;52.556;7.970;2022-07-30T04:05:58;13.43;;;8.50;;
16514;SDS011;8370;52.556;7.970;2022-07-30T04:08:23;11.00;;;9.00;;
16514;SDS011;8370;52.556;7.970;2022-07-30T04:10:49;14.07;;;9.20;;
16514;SDS011;8370;52.556;7.970;2022-07-30T04:13:15;13.43;;;11.17;;
16514;SDS011;8370;52.556;7.970;2022-07-30T04:16:24;15.73;;;11.27;;
16514;SDS011;8370;52.556;7.970;2022-07-30T04:18:39;14.30;;;11.07;;
16514;SDS011;8370;52.556;7.970;2022-07-30T04:21:08;16.13;;;9.60;;
16514;SDS011;8370;52.556;7.970;2022-07-30T04:23:36;10.17;;;8.97;;
16514;SDS011;8370;52.556;7.970;2022-07-30T04:26:03;10.53;;;8.43;;
16514;SDS011;8370;52.556;7.970;2022-07-30T04:28:29;13.97;;;9.90;;
16514;SDS011;8370;52.556;7.970;2022-07-30T04:30:54;15.30;;;10.10;;
16514;SDS011;8370;52.556;7.970;2022-07-30T04:33:20;13.07;;;9.03;;
16514;SDS011;8370;52.556;7.970;2022-07-30T04:35:46;14.67;;;10.27;;
16514;SDS011;8370;52.556;7.970;2022-07-30T04:38:11;16.13;;;9.43;;
16514;SDS011;8370;52.556;7.970;2022-07-30T04:40:38;16.47;;;10.67;;
16514;SDS011;8370;52.556;7.970;2022-07-30T04:43:04;15.07;;;9.53;;
16514;SDS011;8370;52.556;7.970;2022-07-30T04:45:30;15.87;;;9.83;;
16514;SDS011;8370;52.556;7.970;2022-07-30T04:47:56;19.23;;;11.00;;
16514;SDS011;8370;52.556;7.970;2022-07-30T04:50:22;17.53;;;11.43;;
16514;SDS011;8370;52.556;7.970;2022-07-30T04:52:50;16.73;;;11.37;;
16514;SDS011;8370;52.556;7.970;2022-07-30T04:55:17;14.73;;;10.87;;
16514;SDS011;8370;52.556;7.970;2022-07-30T04:57:43;16.90;;;11.67;;
16514;SDS011;8370;52.556;7.970;2022-07-30T05:00:12;15.73;;;11.97;;
16514;SDS011;8370;52.556;7.970;2022-07-30T05:02:37;15.27;;;12.30;;
16514;SDS011;8370;52.556;7.970;2022-07-30T05:05:05;18.83;;;13.43;;
16514;SDS011;8370;52.556;7.970;2022-07-30T05:07:32;18.93;;;13.23;;
16514;SDS011;8370;52.556;7.970;2022-07-30T05:09:58;17.00;;;13.60;;
16514;SDS011;8370;52.556;7.970;2022-07-30T05:12:33;15.90;;;12.97;;
16514;SDS011;8370;52.556;7.970;2022-07-30T05:15:01;17.40;;;13.83;;
16514;SDS011;8370;52.556;7.970;2022-07-30T05:17:28;19.73;;;13.37;;
16514;SDS011;8370;52.556;7.970;2022-07-30T05:19:53;17.67;;;13.50;;
16514;SDS011;8370;52.556;7.970;2022-07-30T05:22:19;16.87;;;13.80;;
16514;SDS011;8370;52.556;7.970;2022-07-30T05:24:44;19.67;;;13.47;;
16514;SDS011;8370;52.556;7.970;2022-07-30T05:27:10;15.97;;;12.57;;
16514;SDS011;8370;52.556;7.970;2022-07-30T05:29:35;20.67;;;13.70;;
16514;SDS011;8370;52.556;7.970;2022-07-30T05:32:00;19.00;;;13.80;;
16514;SDS011;8370;52.556;7.970;2022-07-30T05:34:26;20.67;;;14.33;;
16514;SDS011;8370;52.556;7.970;2022-07-30T05:36:51;21.93;;;14.73;;
16514;SDS011;8370;52.556;7.970;2022-07-30T05:39:17;20.70;;;15.37;;
16514;SDS011;8370;52.556;7.970;2022-07-30T05:41:43;19.83;;;15.20;;
16514;SDS011;8370;52.556;7.970;2022-07-30T05:44:08;22.03;;;15.47;;
16514;SDS011;8370;52.556;7.970;2022-07-30T05:46:34;25.77;;;15.43;;
16514;SDS011;8370;52.556;7.970;2022-07-30T05:48:59;22.83;;;14.90;;
16514;SDS011;8370;52.556;7.970;2022-07-30T05:51:25;18.00;;;14.70;;
16514;SDS011;8370;52.556;7.970;2022-07-30T05:53:50;19.53;;;14.37;;
16514;SDS011;8370;52.556;7.970;2022-07-30T05:56:16;20.90;;;15.17;;
16514;SDS011;8370;52.556;7.970;2022-07-30T05:58:41;20.40;;;15.93;;
16514;SDS011;8370;52.556;7.970;2022-07-30T06:01:07;20.63;;;16.27;;
16514;SDS011;8370;52.556;7.970;2022-07-30T06:03:33;21.47;;;15.53;;
16514;SDS011;8370;52.556;7.970;2022-07-30T06:05:59;20.53;;;15.00;;
16514;SDS011;8370;52.556;7.970;2022-07-30T06:08:26;19.73;;;15.70;;
16514;SDS011;8370;52.556;7.970;2022-07-30T06:10:51;20.43;;;16.47;;
16514;SDS011;8370;52.556;7.970;2022-07-30T06:13:17;22.63;;;15.83;;
16514;SDS011;8370;52.556;7.970;2022-07-30T06:15:42;23.03;;;15.00;;
16514;SDS011;8370;52.556;7.970;2022-07-30T06:18:08;22.07;;;15.40;;
16514;SDS011;8370;52.556;7.970;2022-07-30T06:20:33;19.67;;;15.13;;
16514;SDS011;8370;52.556;7.970;2022-07-30T06:22:59;24.03;;;16.60;;
16514;SDS011;8370;52.556;7.970;2022-07-30T06:25:24;23.63;;;15.93;;
16514;SDS011;8370;52.556;7.970;2022-07-30T06:27:50;18.17;;;14.90;;
16514;SDS011;8370;52.556;7.970;2022-07-30T06:30:15;19.33;;;15.23;;
16514;SDS011;8370;52.556;7.970;2022-07-30T06:32:41;20.77;;;15.10;;
16514;SDS011;8370;52.556;7.970;2022-07-30T06:35:09;20.73;;;14.90;;
16514;SDS011;8370;52.556;7.970;2022-07-30T06:37:35;19.43;;;14.33;;
16514;SDS011;8370;52.556;7.970;2022-07-30T06:40:00;21.87;;;13.93;;
16514;SDS011;8370;52.556;7.970;2022-07-30T06:42:26;18.40;;;14.67;;
16514;SDS011;8370;52.556;7.970;2022-07-30T06:44:52;20.57;;;16.20;;
16514;SDS011;8370;52.556;7.970;2022-07-30T06:47:21;22.57;;;13.93;;
16514;SDS011;8370;52.556;7.970;2022-07-30T06:49:50;18.37;;;13.93;;
16514;SDS011;8370;52.556;7.970;2022-07-30T06:52:16;20.20;;;14.97;;
16514;SDS011;8370;52.556;7.970;2022-07-30T06:54:42;19.07;;;15.53;;
16514;SDS011;8370;52.556;7.970;2022-07-30T06:57:07;20.90;;;15.40;;
16514;SDS011;8370;52.556;7.970;2022-07-30T06:59:33;18.43;;;14.80;;
16514;SDS011;8370;52.556;7.970;2022-07-30T07:01:58;16.40;;;13.73;;
16514;SDS011;8370;52.556;7.970;2022-07-30T07:04:24;20.10;;;14.27;;
16514;SDS011;8370;52.556;7.970;2022-07-30T07:06:49;20.20;;;13.47;;
16514;SDS011;8370;52.556;7.970;2022-07-30T07:09:15;19.10;;;12.90;;
16514;SDS011;8370;52.556;7.970;2022-07-30T07:11:40;16.10;;;12.57;;
16514;SDS011;8370;52.556;7.970;2022-07-30T07:14:06;15.07;;;11.53;;
16514;SDS011;8370;52.556;7.970;2022-07-30T07:16:31;18.93;;;12.50;;
16514;SDS011;8370;52.556;7.970;2022-07-30T07:18:57;17.50;;;12.50;;
16514;SDS011;8370;52.556;7.970;2022-07-30T07:21:22;16.13;;;12.02;;
16514;SDS011;8370;52.556;7.970;2022-07-30T07:23:48;16.10;;;11.40;;
16514;SDS011;8370;52.556;7.970;2022-07-30T07:26:14;16.90;;;11.00;;
16514;SDS011;8370;52.556;7.970;2022-07-30T07:28:40;12.90;;;10.40;;
16514;SDS011;8370;52.556;7.970;2022-07-30T07:31:06;13.00;;;10.13;;
16514;SDS011;8370;52.556;7.970;2022-07-30T07:33:34;14.93;;;11.50;;
16514;SDS011;8370;52.556;7.970;2022-07-30T07:35:59;14.63;;;11.38;;
16514;SDS011;8370;52.556;7.970;2022-07-30T07:38:25;13.63;;;9.32;;
16514;SDS011;8370;52.556;7.970;2022-07-30T07:40:50;21.23;;;10.80;;
16514;SDS011;8370;52.556;7.970;2022-07-30T07:43:17;16.60;;;9.13;;
16514;SDS011;8370;52.556;7.970;2022-07-30T07:45:42;16.02;;;9.50;;
16514;SDS011;8370;52.556;7.970;2022-07-30T07:48:09;16.75;;;9.48;;
16514;SDS011;8370;52.556;7.970;2022-07-30T07:50:35;13.10;;;9.13;;
16514;SDS011;8370;52.556;7.970;2022-07-30T07:53:00;13.15;;;7.53;;
16514;SDS011;8370;52.556;7.970;2022-07-30T07:55:26;12.10;;;7.30;;
16514;SDS011;8370;52.556;7.970;2022-07-30T07:57:52;11.25;;;8.48;;
16514;SDS011;8370;52.556;7.970;2022-07-30T08:00:17;10.63;;;8.38;;
16514;SDS011;8370;52.556;7.970;2022-07-30T08:02:43;13.70;;;8.40;;
16514;SDS011;8370;52.556;7.970;2022-07-30T08:05:09;9.90;;;5.93;;
16514;SDS011;8370;52.556;7.970;2022-07-30T08:07:36;13.63;;;7.15;;
16514;SDS011;8370;52.556;7.970;2022-07-30T08:10:02;12.98;;;7.07;;
16514;SDS011;8370;52.556;7.970;2022-07-30T08:12:28;10.40;;;6.10;;
16514;SDS011;8370;52.556;7.970;2022-07-30T08:14:54;9.23;;;5.57;;
16514;SDS011;8370;52.556;7.970;2022-07-30T08:17:19;11.68;;;6.15;;
16514;SDS011;8370;52.556;7.970;2022-07-30T08:19:45;10.75;;;5.55;;
16514;SDS011;8370;52.556;7.970;2022-07-30T08:22:10;10.85;;;4.80;;
16514;SDS011;8370;52.556;7.970;2022-07-30T08:24:36;12.30;;;5.38;;
16514;SDS011;8370;52.556;7.970;2022-07-30T08:27:02;13.05;;;6.07;;
16514;SDS011;8370;52.556;7.970;2022-07-30T08:29:28;9.15;;;4.70;;
16514;SDS011;8370;52.556;7.970;2022-07-30T08:31:54;7.97;;;4.75;;
16514;SDS011;8370;52.556;7.970;2022-07-30T08:34:19;9.43;;;4.82;;
16514;SDS011;8370;52.556;7.970;2022-07-30T08:36:45;8.80;;;5.10;;
16514;SDS011;8370;52.556;7.970;2022-07-30T08:39:11;5.53;;;4.40;;
16514;SDS011;8370;52.556;7.970;2022-07-30T08:41:36;9.25;;;4.47;;
16514;SDS011;8370;52.556;7.970;2022-07-30T08:44:02;8.00;;;4.35;;
16514;SDS011;8370;52.556;7.970;2022-07-30T08:46:30;6.82;;;4.22;;
16514;SDS011;8370;52.556;7.970;2022-07-30T08:48:56;7.28;;;3.72;;
16514;SDS011;8370;52.556;7.970;2022-07-30T08:51:22;7.88;;;4.40;;
16514;SDS011;8370;52.556;7.970;2022-07-30T08:53:49;7.43;;;5.22;;
16514;SDS011;8370;52.556;7.970;2022-07-30T08:56:15;7.95;;;4.30;;
16514;SDS011;8370;52.556;7.970;2022-07-30T08:58:40;8.48;;;3.78;;
16514;SDS011;8370;52.556;7.970;2022-07-30T09:01:06;5.63;;;3.58;;
16514;SDS011;8370;52.556;7.970;2022-07-30T09:03:33;6.60;;;3.80;;
16514;SDS011;8370;52.556;7.970;2022-07-30T09:05:59;7.22;;;4.57;;
16514;SDS011;8370;52.556;7.970;2022-07-30T09:08:26;3.95;;;3.47;;
16514;SDS011;8370;52.556;7.970;2022-07-30T09:10:51;5.55;;;3.58;;
16514;SDS011;8370;52.556;7.970;2022-07-30T09:13:24;6.03;;;3.28;;
16514;SDS011;8370;52.556;7.970;2022-07-30T09:15:51;6.82;;;3.90;;
16514;SDS011;8370;52.556;7.970;2022-07-30T09:18:28;6.57;;;3.65;;
16514;SDS011;8370;52.556;7.970;2022-07-30T09:21:12;6.22;;;3.85;;
16514;SDS011;8370;52.556;7.970;2022-07-30T09:23:39;8.23;;;3.67;;
16514;SDS011;8370;52.556;7.970;2022-07-30T09:26:04;4.47;;;3.33;;
16514;SDS011;8370;52.556;7.970;2022-07-30T09:28:31;5.90;;;3.33;;
16514;SDS011;8370;52.556;7.970;2022-07-30T09:30:57;4.05;;;2.78;;
16514;SDS011;8370;52.556;7.970;2022-07-30T09:33:31;7.55;;;3.35;;
16514;SDS011;8370;52.556;7.970;2022-07-30T09:36:07;6.82;;;2.65;;
16514;SDS011;8370;52.556;7.970;2022-07-30T09:38:41;6.25;;;3.53;;
16514;SDS011;8370;52.556;7.970;2022-07-30T09:41:08;6.15;;;3.25;;
16514;SDS011;8370;52.556;7.970;2022-07-30T09:43:41;4.15;;;3.28;;
16514;SDS011;8370;52.556;7.970;2022-07-30T09:46:07;7.55;;;3.08;;
16514;SDS011;8370;52.556;7.970;2022-07-30T09:48:32;5.05;;;2.45;;
16514;SDS011;8370;52.556;7.970;2022-07-30T09:50:58;6.05;;;3.13;;
16514;SDS011;8370;52.556;7.970;2022-07-30T09:53:23;4.72;;;2.83;;
16514;SDS011;8370;52.556;7.970;2022-07-30T09:55:50;9.88;;;2.90;;
16514;SDS011;8370;52.556;7.970;2022-07-30T09:58:15;5.18;;;3.33;;
16514;SDS011;8370;52.556;7.970;2022-07-30T10:00:42;6.60;;;2.95;;
16514;SDS011;8370;52.556;7.970;2022-07-30T10:03:15;7.70;;;3.03;;
16514;SDS011;8370;52.556;7.970;2022-07-30T10:05:52;4.30;;;2.80;;
16514;SDS011;8370;52.556;7.970;2022-07-30T10:08:19;9.20;;;2.72;;
16514;SDS011;8370;52.556;7.970;2022-07-30T10:11:01;5.00;;;2.83;;
16514;SDS011;8370;52.556;7.970;2022-07-30T10:13:27;6.07;;;2.83;;
16514;SDS011;8370;52.556;7.970;2022-07-30T10:15:53;2.92;;;2.53;;
16514;SDS011;8370;52.556;7.970;2022-07-30T10:18:18;5.22;;;2.60;;
16514;SDS011;8370;52.556;7.970;2022-07-30T10:20:44;8.15;;;3.00;;
16514;SDS011;8370;52.556;7.970;2022-07-30T10:23:10;3.55;;;2.58;;
16514;SDS011;8370;52.556;7.970;2022-07-30T10:25:36;5.55;;;2.90;;
16514;SDS011;8370;52.556;7.970;2022-07-30T10:28:03;5.60;;;2.55;;
16514;SDS011;8370;52.556;7.970;2022-07-30T10:30:29;5.50;;;2.70;;
16514;SDS011;8370;52.556;7.970;2022-07-30T10:32:57;4.03;;;2.13;;
16514;SDS011;8370;52.556;7.970;2022-07-30T10:35:23;4.85;;;2.70;;
16514;SDS011;8370;52.556;7.970;2022-07-30T10:37:49;5.68;;;2.60;;
16514;SDS011;8370;52.556;7.970;2022-07-30T10:40:20;5.22;;;2.45;;
16514;SDS011;8370;52.556;7.970;2022-07-30T10:42:56;6.43;;;2.70;;
16514;SDS011;8370;52.556;7.970;2022-07-30T10:45:57;3.67;;;2.53;;
16514;SDS011;8370;52.556;7.970;2022-07-30T10:48:33;6.00;;;2.28;;
16514;SDS011;8370;52.556;7.970;2022-07-30T10:50:59;5.70;;;2.70;;
16514;SDS011;8370;52.556;7.970;2022-07-30T10:53:32;2.42;;;2.10;;
16514;SDS011;8370;52.556;7.970;2022-07-30T10:56:12;6.53;;;2.33;;
16514;SDS011;8370;52.556;7.970;2022-07-30T10:59:01;3.03;;;2.50;;
16514;SDS011;8370;52.556;7.970;2022-07-30T11:04:20;4.13;;;2.10;;
16514;SDS011;8370;52.556;7.970;2022-07-30T11:06:47;6.55;;;2.25;;
16514;SDS011;8370;52.556;7.970;2022-07-30T11:09:47;5.47;;;3.00;;
16514;SDS011;8370;52.556;7.970;2022-07-30T11:12:06;5.80;;;2.40;;
16514;SDS011;8370;52.556;7.970;2022-07-30T11:17:11;5.80;;;2.55;;
16514;SDS011;8370;52.556;7.970;2022-07-30T11:22:30;2.75;;;2.35;;
16514;SDS011;8370;52.556;7.970;2022-07-30T11:27:46;3.70;;;2.28;;
16514;SDS011;8370;52.556;7.970;2022-07-30T11:32:42;4.32;;;2.42;;
16514;SDS011;8370;52.556;7.970;2022-07-30T11:35:10;4.63;;;2.03;;
16514;SDS011;8370;52.556;7.970;2022-07-30T11:40:29;4.78;;;2.33;;
16514;SDS011;8370;52.556;7.970;2022-07-30T11:45:44;6.50;;;2.38;;
16514;SDS011;8370;52.556;7.970;2022-07-30T11:48:12;6.32;;;2.60;;
16514;SDS011;8370;52.556;7.970;2022-07-30T11:50:40;4.18;;;2.15;;
16514;SDS011;8370;52.556;7.970;2022-07-30T11:53:07;5.97;;;2.78;;
16514;SDS011;8370;52.556;7.970;2022-07-30T11:55:38;4.25;;;2.72;;
16514;SDS011;8370;52.556;7.970;2022-07-30T11:58:07;5.82;;;3.08;;
16514;SDS011;8370;52.556;7.970;2022-07-30T12:00:53;4.55;;;2.35;;
16514;SDS011;8370;52.556;7.970;2022-07-30T12:03:21;6.18;;;2.55;;
16514;SDS011;8370;52.556;7.970;2022-07-30T12:05:48;7.57;;;2.58;;
16514;SDS011;8370;52.556;7.970;2022-07-30T12:08:14;4.13;;;2.22;;
16514;SDS011;8370;52.556;7.970;2022-07-30T12:10:41;4.68;;;2.45;;
16514;SDS011;8370;52.556;7.970;2022-07-30T12:13:11;6.78;;;2.97;;
16514;SDS011;8370;52.556;7.970;2022-07-30T12:15:39;5.00;;;2.50;;
16514;SDS011;8370;52.556;7.970;2022-07-30T12:18:06;7.78;;;2.58;;
16514;SDS011;8370;52.556;7.970;2022-07-30T12:20:32;5.07;;;2.40;;
16514;SDS011;8370;52.556;7.970;2022-07-30T12:22:57;4.10;;;2.50;;
16514;SDS011;8370;52.556;7.970;2022-07-30T12:25:23;6.18;;;2.15;;
16514;SDS011;8370;52.556;7.970;2022-07-30T12:27:49;3.13;;;2.10;;
16514;SDS011;8370;52.556;7.970;2022-07-30T12:30:16;4.97;;;2.75;;
16514;SDS011;8370;52.556;7.970;2022-07-30T12:32:45;6.22;;;2.47;;
16514;SDS011;8370;52.556;7.970;2022-07-30T12:35:11;3.30;;;1.98;;
16514;SDS011;8370;52.556;7.970;2022-07-30T12:37:37;4.88;;;2.38;;
16514;SDS011;8370;52.556;7.970;2022-07-30T12:40:04;4.53;;;2.10;;
16514;SDS011;8370;52.556;7.970;2022-07-30T12:42:47;5.35;;;2.75;;
16514;SDS011;8370;52.556;7.970;2022-07-30T12:47:53;3.95;;;2.33;;
16514;SDS011;8370;52.556;7.970;2022-07-30T12:50:18;3.40;;;2.28;;
16514;SDS011;8370;52.556;7.970;2022-07-30T12:52:47;3.78;;;2.47;;
16514;SDS011;8370;52.556;7.970;2022-07-30T12:55:17;4.35;;;2.55;;
16514;SDS011;8370;52.556;7.970;2022-07-30T13:02:57;4.65;;;2.38;;
16514;SDS011;8370;52.556;7.970;2022-07-30T13:08:11;3.90;;;2.20;;
16514;SDS011;8370;52.556;7.970;2022-07-30T13:10:37;6.80;;;2.55;;
16514;SDS011;8370;52.556;7.970;2022-07-30T13:13:03;4.82;;;2.53;;
16514;SDS011;8370;52.556;7.970;2022-07-30T13:15:28;9.73;;;3.08;;
16514;SDS011;8370;52.556;7.970;2022-07-30T13:17:54;5.93;;;2.83;;
16514;SDS011;8370;52.556;7.970;2022-07-30T13:20:20;4.60;;;2.45;;
16514;SDS011;8370;52.556;7.970;2022-07-30T13:22:45;4.50;;;2.30;;
16514;SDS011;8370;52.556;7.970;2022-07-30T13:25:11;5.50;;;2.20;;
16514;SDS011;8370;52.556;7.970;2022-07-30T13:27:37;4.32;;;2.33;;
16514;SDS011;8370;52.556;7.970;2022-07-30T13:30:03;7.78;;;3.10;;
16514;SDS011;8370;52.556;7.970;2022-07-30T13:32:29;2.78;;;2.17;;
16514;SDS011;8370;52.556;7.970;2022-07-30T13:34:55;4.53;;;2.20;;
16514;SDS011;8370;52.556;7.970;2022-07-30T13:37:20;7.05;;;3.08;;
16514;SDS011;8370;52.556;7.970;2022-07-30T13:39:46;4.35;;;2.33;;
16514;SDS011;8370;52.556;7.970;2022-07-30T13:42:11;4.80;;;2.38;;
16514;SDS011;8370;52.556;7.970;2022-07-30T13:44:37;4.05;;;2.50;;
16514;SDS011;8370;52.556;7.970;2022-07-30T13:47:02;11.63;;;2.60;;
16514;SDS011;8370;52.556;7.970;2022-07-30T13:49:28;7.60;;;2.40;;
16514;SDS011;8370;52.556;7.970;2022-07-30T13:51:53;7.85;;;2.97;;
16514;SDS011;8370;52.556;7.970;2022-07-30T13:54:19;5.50;;;2.35;;
16514;SDS011;8370;52.556;7.970;2022-07-30T13:56:44;6.80;;;3.90;;
16514;SDS011;8370;52.556;7.970;2022-07-30T13:59:10;5.50;;;2.50;;
16514;SDS011;8370;52.556;7.970;2022-07-30T14:01:35;2.95;;;1.95;;
16514;SDS011;8370;52.556;7.970;2022-07-30T14:04:01;5.28;;;2.50;;
16514;SDS011;8370;52.556;7.970;2022-07-30T14:06:27;3.40;;;2.20;;
16514;SDS011;8370;52.556;7.970;2022-07-30T14:08:53;3.35;;;2.42;;
16514;SDS011;8370;52.556;7.970;2022-07-30T14:11:18;3.63;;;1.90;;
16514;SDS011;8370;52.556;7.970;2022-07-30T14:13:44;3.80;;;2.03;;
16514;SDS011;8370;52.556;7.970;2022-07-30T14:16:09;4.50;;;2.33;;
16514;SDS011;8370;52.556;7.970;2022-07-30T14:18:35;4.20;;;1.90;;
16514;SDS011;8370;52.556;7.970;2022-07-30T14:21:01;5.28;;;2.00;;
16514;SDS011;8370;52.556;7.970;2022-07-30T14:23:27;2.83;;;1.95;;
16514;SDS011;8370;52.556;7.970;2022-07-30T14:25:53;3.72;;;1.98;;
16514;SDS011;8370;52.556;7.970;2022-07-30T14:28:18;4.40;;;2.00;;
16514;SDS011;8370;52.556;7.970;2022-07-30T14:30:44;3.17;;;2.05;;
16514;SDS011;8370;52.556;7.970;2022-07-30T14:33:09;6.97;;;2.65;;
16514;SDS011;8370;52.556;7.970;2022-07-30T14:35:35;3.00;;;2.20;;
16514;SDS011;8370;52.556;7.970;2022-07-30T14:38:00;3.40;;;2.22;;
16514;SDS011;8370;52.556;7.970;2022-07-30T14:40:27;6.38;;;1.77;;
16514;SDS011;8370;52.556;7.970;2022-07-30T14:42:53;6.60;;;1.80;;
16514;SDS011;8370;52.556;7.970;2022-07-30T14:45:18;4.93;;;1.80;;
16514;SDS011;8370;52.556;7.970;2022-07-30T14:47:44;3.15;;;1.88;;
16514;SDS011;8370;52.556;7.970;2022-07-30T14:50:09;2.75;;;2.03;;
16514;SDS011;8370;52.556;7.970;2022-07-30T14:52:35;3.50;;;2.00;;
16514;SDS011;8370;52.556;7.970;2022-07-30T14:55:03;3.25;;;1.60;;
16514;SDS011;8370;52.556;7.970;2022-07-30T14:57:29;2.63;;;2.03;;
16514;SDS011;8370;52.556;7.970;2022-07-30T14:59:55;7.35;;;2.90;;
16514;SDS011;8370;52.556;7.970;2022-07-30T15:02:20;4.68;;;2.22;;
16514;SDS011;8370;52.556;7.970;2022-07-30T15:04:47;4.95;;;2.65;;
16514;SDS011;8370;52.556;7.970;2022-07-30T15:07:13;6.13;;;2.63;;
16514;SDS011;8370;52.556;7.970;2022-07-30T15:09:38;6.20;;;2.50;;
16514;SDS011;8370;52.556;7.970;2022-07-30T15:12:04;4.63;;;2.58;;
16514;SDS011;8370;52.556;7.970;2022-07-30T15:14:30;4.65;;;2.30;;
16514;SDS011;8370;52.556;7.970;2022-07-30T15:16:56;4.40;;;2.40;;
16514;SDS011;8370;52.556;7.970;2022-07-30T15:19:21;4.85;;;2.22;;
16514;SDS011;8370;52.556;7.970;2022-07-30T15:21:47;3.47;;;1.90;;
16514;SDS011;8370;52.556;7.970;2022-07-30T15:24:12;4.07;;;2.15;;
16514;SDS011;8370;52.556;7.970;2022-07-30T15:26:38;4.18;;;2.10;;
16514;SDS011;8370;52.556;7.970;2022-07-30T15:29:03;5.13;;;1.88;;